sensor_id;sensor_type;location;lat;lon;timestamp;P1;durP1;ratioP1;P2;durP2;ratioP2
76123;SDS011;65173;48.066;20.976;2023-09-08T00:02:37;5.68;;;4.72;;
76123;SDS011;65173;48.066;20.976;2023-09-08T00:05:40;9.05;;;4.53;;
76123;SDS011;65173;48.066;20.976;2023-09-08T00:08:42;8.55;;;4.35;;
76123;SDS011;65173;48.066;20.976;2023-09-08T00:11:45;5.10;;;3.90;;
76123;SDS011;65173;48.066;20.976;2023-09-08T00:14:47;6.03;;;4.43;;
76123;SDS011;65173;48.066;20.976;2023-09-08T00:17:50;7.38;;;4.10;;
76123;SDS011;65173;48.066;20.976;2023-09-08T00:20:52;6.37;;;4.10;;
76123;SDS011;65173;48.066;20.976;2023-09-08T00:23:55;5.22;;;4.32;;
76123;SDS011;65173;48.066;20.976;2023-09-08T00:26:58;6.72;;;4.25;;
76123;SDS011;65173;48.066;20.976;2023-09-08T00:30:01;8.07;;;4.63;;
76123;SDS011;65173;48.066;20.976;2023-09-08T00:33:04;7.22;;;4.43;;
76123;SDS011;65173;48.066;20.976;2023-09-08T00:36:11;5.53;;;4.63;;
76123;SDS011;65173;48.066;20.976;2023-09-08T00:39:13;6.85;;;3.80;;
76123;SDS011;65173;48.066;20.976;2023-09-08T00:42:16;9.25;;;4.75;;
76123;SDS011;65173;48.066;20.976;2023-09-08T00:45:18;6.80;;;4.40;;
76123;SDS011;65173;48.066;20.976;2023-09-08T00:48:21;6.70;;;4.22;;
76123;SDS011;65173;48.066;20.976;2023-09-08T00:51:23;7.00;;;4.43;;
76123;SDS011;65173;48.066;20.976;2023-09-08T00:54:26;6.45;;;4.07;;
76123;SDS011;65173;48.066;20.976;2023-09-08T00:57:28;4.88;;;3.97;;
76123;SDS011;65173;48.066;20.976;2023-09-08T01:00:31;5.10;;;3.93;;
76123;SDS011;65173;48.066;20.976;2023-09-08T01:03:34;8.63;;;4.25;;
76123;SDS011;65173;48.066;20.976;2023-09-08T01:06:37;6.35;;;4.32;;
76123;SDS011;65173;48.066;20.976;2023-09-08T01:09:40;6.65;;;4.03;;
76123;SDS011;65173;48.066;20.976;2023-09-08T01:12:43;5.78;;;4.35;;
76123;SDS011;65173;48.066;20.976;2023-09-08T01:15:46;8.05;;;4.38;;
76123;SDS011;65173;48.066;20.976;2023-09-08T01:18:48;7.70;;;4.72;;
76123;SDS011;65173;48.066;20.976;2023-09-08T01:22:09;5.83;;;4.60;;
76123;SDS011;65173;48.066;20.976;2023-09-08T01:25:25;8.60;;;4.43;;
76123;SDS011;65173;48.066;20.976;2023-09-08T01:28:31;7.97;;;4.25;;
76123;SDS011;65173;48.066;20.976;2023-09-08T01:31:35;7.57;;;4.43;;
76123;SDS011;65173;48.066;20.976;2023-09-08T01:34:40;7.97;;;4.22;;
76123;SDS011;65173;48.066;20.976;2023-09-08T01:37:46;6.18;;;4.45;;
76123;SDS011;65173;48.066;20.976;2023-09-08T01:40:50;11.70;;;4.50;;
76123;SDS011;65173;48.066;20.976;2023-09-08T01:43:53;5.88;;;4.72;;
76123;SDS011;65173;48.066;20.976;2023-09-08T01:46:56;6.80;;;4.35;;
76123;SDS011;65173;48.066;20.976;2023-09-08T01:50:00;9.73;;;4.68;;
76123;SDS011;65173;48.066;20.976;2023-09-08T01:53:03;6.23;;;4.60;;
76123;SDS011;65173;48.066;20.976;2023-09-08T01:56:06;8.90;;;4.80;;
76123;SDS011;65173;48.066;20.976;2023-09-08T01:59:09;7.40;;;4.82;;
76123;SDS011;65173;48.066;20.976;2023-09-08T02:02:11;7.47;;;4.73;;
76123;SDS011;65173;48.066;20.976;2023-09-08T02:05:14;7.95;;;4.30;;
76123;SDS011;65173;48.066;20.976;2023-09-08T02:08:17;6.65;;;4.35;;
76123;SDS011;65173;48.066;20.976;2023-09-08T02:11:19;6.15;;;4.38;;
76123;SDS011;65173;48.066;20.976;2023-09-08T02:14:23;7.28;;;3.85;;
76123;SDS011;65173;48.066;20.976;2023-09-08T02:17:26;7.00;;;4.20;;
76123;SDS011;65173;48.066;20.976;2023-09-08T02:20:28;7.40;;;3.40;;
76123;SDS011;65173;48.066;20.976;2023-09-08T02:23:30;8.20;;;4.33;;
76123;SDS011;65173;48.066;20.976;2023-09-08T02:26:34;5.70;;;4.22;;
76123;SDS011;65173;48.066;20.976;2023-09-08T02:29:37;7.05;;;4.28;;
76123;SDS011;65173;48.066;20.976;2023-09-08T02:32:40;5.33;;;3.67;;
76123;SDS011;65173;48.066;20.976;2023-09-08T02:35:47;6.55;;;4.25;;
76123;SDS011;65173;48.066;20.976;2023-09-08T02:38:53;7.72;;;5.75;;
76123;SDS011;65173;48.066;20.976;2023-09-08T02:41:57;8.70;;;4.90;;
76123;SDS011;65173;48.066;20.976;2023-09-08T02:44:59;5.60;;;4.20;;
76123;SDS011;65173;48.066;20.976;2023-09-08T02:48:02;5.75;;;4.47;;
76123;SDS011;65173;48.066;20.976;2023-09-08T02:51:05;6.45;;;4.88;;
76123;SDS011;65173;48.066;20.976;2023-09-08T02:54:08;5.73;;;4.13;;
76123;SDS011;65173;48.066;20.976;2023-09-08T02:57:12;11.38;;;4.75;;
76123;SDS011;65173;48.066;20.976;2023-09-08T03:00:15;6.13;;;4.57;;
76123;SDS011;65173;48.066;20.976;2023-09-08T03:03:20;6.83;;;4.37;;
76123;SDS011;65173;48.066;20.976;2023-09-08T03:06:23;8.10;;;4.55;;
76123;SDS011;65173;48.066;20.976;2023-09-08T03:09:26;7.88;;;4.53;;
76123;SDS011;65173;48.066;20.976;2023-09-08T03:12:29;6.18;;;4.85;;
76123;SDS011;65173;48.066;20.976;2023-09-08T03:15:33;8.00;;;4.63;;
76123;SDS011;65173;48.066;20.976;2023-09-08T03:18:36;10.80;;;5.55;;
76123;SDS011;65173;48.066;20.976;2023-09-08T03:21:39;7.90;;;4.82;;
76123;SDS011;65173;48.066;20.976;2023-09-08T03:24:42;6.57;;;4.63;;
76123;SDS011;65173;48.066;20.976;2023-09-08T03:27:44;7.95;;;4.95;;
76123;SDS011;65173;48.066;20.976;2023-09-08T03:30:47;10.00;;;5.43;;
76123;SDS011;65173;48.066;20.976;2023-09-08T03:33:50;7.13;;;5.10;;
76123;SDS011;65173;48.066;20.976;2023-09-08T03:36:53;6.60;;;4.68;;
76123;SDS011;65173;48.066;20.976;2023-09-08T03:39:56;10.68;;;5.40;;
76123;SDS011;65173;48.066;20.976;2023-09-08T03:42:58;7.45;;;4.50;;
76123;SDS011;65173;48.066;20.976;2023-09-08T03:46:01;7.63;;;5.07;;
76123;SDS011;65173;48.066;20.976;2023-09-08T03:49:04;7.68;;;5.53;;
76123;SDS011;65173;48.066;20.976;2023-09-08T03:52:06;10.20;;;5.43;;
76123;SDS011;65173;48.066;20.976;2023-09-08T03:55:09;7.07;;;5.03;;
76123;SDS011;65173;48.066;20.976;2023-09-08T03:58:11;5.10;;;4.10;;
76123;SDS011;65173;48.066;20.976;2023-09-08T04:01:14;7.40;;;4.82;;
76123;SDS011;65173;48.066;20.976;2023-09-08T04:04:17;7.40;;;5.27;;
76123;SDS011;65173;48.066;20.976;2023-09-08T04:07:22;8.18;;;4.93;;
76123;SDS011;65173;48.066;20.976;2023-09-08T04:10:25;9.65;;;5.10;;
76123;SDS011;65173;48.066;20.976;2023-09-08T04:13:27;6.68;;;4.88;;
76123;SDS011;65173;48.066;20.976;2023-09-08T04:16:30;9.52;;;5.05;;
76123;SDS011;65173;48.066;20.976;2023-09-08T04:19:33;5.50;;;4.55;;
76123;SDS011;65173;48.066;20.976;2023-09-08T04:22:36;9.30;;;4.63;;
76123;SDS011;65173;48.066;20.976;2023-09-08T04:25:38;7.60;;;4.63;;
76123;SDS011;65173;48.066;20.976;2023-09-08T04:28:40;6.78;;;4.60;;
76123;SDS011;65173;48.066;20.976;2023-09-08T04:31:43;6.43;;;4.35;;
76123;SDS011;65173;48.066;20.976;2023-09-08T04:34:46;6.50;;;4.53;;
76123;SDS011;65173;48.066;20.976;2023-09-08T04:37:49;10.40;;;5.35;;
76123;SDS011;65173;48.066;20.976;2023-09-08T04:40:51;6.28;;;3.85;;
76123;SDS011;65173;48.066;20.976;2023-09-08T04:43:54;7.63;;;4.53;;
76123;SDS011;65173;48.066;20.976;2023-09-08T04:46:58;8.23;;;4.65;;
76123;SDS011;65173;48.066;20.976;2023-09-08T04:50:01;10.13;;;4.85;;
76123;SDS011;65173;48.066;20.976;2023-09-08T04:53:04;10.23;;;4.53;;
76123;SDS011;65173;48.066;20.976;2023-09-08T04:56:07;8.25;;;5.40;;
76123;SDS011;65173;48.066;20.976;2023-09-08T04:59:09;9.60;;;5.35;;
76123;SDS011;65173;48.066;20.976;2023-09-08T05:02:12;8.43;;;5.32;;
76123;SDS011;65173;48.066;20.976;2023-09-08T05:05:15;7.90;;;4.40;;
76123;SDS011;65173;48.066;20.976;2023-09-08T05:08:17;9.25;;;4.75;;
76123;SDS011;65173;48.066;20.976;2023-09-08T05:11:20;8.52;;;4.40;;
76123;SDS011;65173;48.066;20.976;2023-09-08T05:14:23;7.07;;;4.93;;
76123;SDS011;65173;48.066;20.976;2023-09-08T05:17:27;7.93;;;5.80;;
76123;SDS011;65173;48.066;20.976;2023-09-08T05:20:30;7.15;;;4.85;;
76123;SDS011;65173;48.066;20.976;2023-09-08T05:23:34;7.35;;;5.00;;
76123;SDS011;65173;48.066;20.976;2023-09-08T05:26:37;9.30;;;4.70;;
76123;SDS011;65173;48.066;20.976;2023-09-08T05:29:40;7.38;;;4.45;;
76123;SDS011;65173;48.066;20.976;2023-09-08T05:32:43;6.85;;;3.88;;
76123;SDS011;65173;48.066;20.976;2023-09-08T05:35:46;6.27;;;4.50;;
76123;SDS011;65173;48.066;20.976;2023-09-08T05:38:51;5.45;;;4.20;;
76123;SDS011;65173;48.066;20.976;2023-09-08T05:41:54;8.48;;;5.72;;
76123;SDS011;65173;48.066;20.976;2023-09-08T05:44:58;8.07;;;4.80;;
76123;SDS011;65173;48.066;20.976;2023-09-08T05:48:02;7.72;;;4.47;;
76123;SDS011;65173;48.066;20.976;2023-09-08T05:51:05;7.80;;;5.43;;
76123;SDS011;65173;48.066;20.976;2023-09-08T05:54:09;6.43;;;4.95;;
76123;SDS011;65173;48.066;20.976;2023-09-08T05:57:13;7.53;;;4.40;;
76123;SDS011;65173;48.066;20.976;2023-09-08T06:00:15;6.75;;;4.90;;
76123;SDS011;65173;48.066;20.976;2023-09-08T06:03:22;6.20;;;4.13;;
76123;SDS011;65173;48.066;20.976;2023-09-08T06:06:26;6.73;;;3.80;;
76123;SDS011;65173;48.066;20.976;2023-09-08T06:09:30;6.22;;;3.65;;
76123;SDS011;65173;48.066;20.976;2023-09-08T06:12:33;6.25;;;4.13;;
76123;SDS011;65173;48.066;20.976;2023-09-08T06:15:35;8.15;;;3.97;;
76123;SDS011;65173;48.066;20.976;2023-09-08T06:18:39;5.43;;;4.40;;
76123;SDS011;65173;48.066;20.976;2023-09-08T06:21:49;6.68;;;4.38;;
76123;SDS011;65173;48.066;20.976;2023-09-08T06:24:52;7.72;;;4.70;;
76123;SDS011;65173;48.066;20.976;2023-09-08T06:27:54;4.40;;;4.00;;
76123;SDS011;65173;48.066;20.976;2023-09-08T06:30:57;5.68;;;4.00;;
76123;SDS011;65173;48.066;20.976;2023-09-08T06:34:00;5.18;;;3.92;;
76123;SDS011;65173;48.066;20.976;2023-09-08T06:37:03;4.87;;;4.00;;
76123;SDS011;65173;48.066;20.976;2023-09-08T06:40:06;9.18;;;3.80;;
76123;SDS011;65173;48.066;20.976;2023-09-08T06:43:09;6.03;;;3.75;;
76123;SDS011;65173;48.066;20.976;2023-09-08T06:46:32;5.15;;;3.60;;
76123;SDS011;65173;48.066;20.976;2023-09-08T06:49:35;7.10;;;4.35;;
76123;SDS011;65173;48.066;20.976;2023-09-08T06:52:37;6.82;;;3.35;;
76123;SDS011;65173;48.066;20.976;2023-09-08T06:55:40;5.95;;;4.40;;
76123;SDS011;65173;48.066;20.976;2023-09-08T06:58:46;4.33;;;3.33;;
76123;SDS011;65173;48.066;20.976;2023-09-08T07:01:49;4.88;;;3.95;;
76123;SDS011;65173;48.066;20.976;2023-09-08T07:04:52;4.93;;;4.05;;
76123;SDS011;65173;48.066;20.976;2023-09-08T07:07:55;10.33;;;4.50;;
76123;SDS011;65173;48.066;20.976;2023-09-08T07:10:58;5.65;;;3.88;;
76123;SDS011;65173;48.066;20.976;2023-09-08T07:14:01;8.38;;;4.53;;
76123;SDS011;65173;48.066;20.976;2023-09-08T07:17:05;8.52;;;4.10;;
76123;SDS011;65173;48.066;20.976;2023-09-08T07:20:08;6.22;;;3.65;;
76123;SDS011;65173;48.066;20.976;2023-09-08T07:23:11;6.50;;;3.88;;
76123;SDS011;65173;48.066;20.976;2023-09-08T07:26:13;7.90;;;3.80;;
76123;SDS011;65173;48.066;20.976;2023-09-08T07:29:16;3.97;;;2.97;;
76123;SDS011;65173;48.066;20.976;2023-09-08T07:32:19;6.97;;;3.15;;
76123;SDS011;65173;48.066;20.976;2023-09-08T07:35:22;4.00;;;2.95;;
76123;SDS011;65173;48.066;20.976;2023-09-08T07:38:26;5.50;;;3.20;;
76123;SDS011;65173;48.066;20.976;2023-09-08T07:41:29;2.85;;;2.60;;
76123;SDS011;65173;48.066;20.976;2023-09-08T07:44:31;5.30;;;3.20;;
76123;SDS011;65173;48.066;20.976;2023-09-08T07:47:34;4.38;;;2.75;;
76123;SDS011;65173;48.066;20.976;2023-09-08T07:50:36;5.00;;;3.10;;
76123;SDS011;65173;48.066;20.976;2023-09-08T07:53:39;4.00;;;3.05;;
76123;SDS011;65173;48.066;20.976;2023-09-08T07:56:41;4.32;;;2.85;;
76123;SDS011;65173;48.066;20.976;2023-09-08T07:59:45;3.83;;;2.63;;
76123;SDS011;65173;48.066;20.976;2023-09-08T08:02:48;4.35;;;3.28;;
76123;SDS011;65173;48.066;20.976;2023-09-08T08:05:52;4.63;;;3.80;;
76123;SDS011;65173;48.066;20.976;2023-09-08T08:08:55;4.23;;;2.93;;
76123;SDS011;65173;48.066;20.976;2023-09-08T08:12:18;3.15;;;2.60;;
76123;SDS011;65173;48.066;20.976;2023-09-08T08:15:41;4.40;;;2.78;;
76123;SDS011;65173;48.066;20.976;2023-09-08T08:19:00;4.82;;;3.03;;
76123;SDS011;65173;48.066;20.976;2023-09-08T08:22:02;4.43;;;3.10;;
76123;SDS011;65173;48.066;20.976;2023-09-08T08:25:05;5.30;;;2.45;;
76123;SDS011;65173;48.066;20.976;2023-09-08T08:28:08;3.97;;;2.95;;
76123;SDS011;65173;48.066;20.976;2023-09-08T08:31:10;4.77;;;2.80;;
76123;SDS011;65173;48.066;20.976;2023-09-08T08:34:13;3.10;;;2.80;;
76123;SDS011;65173;48.066;20.976;2023-09-08T08:37:15;2.67;;;2.38;;
76123;SDS011;65173;48.066;20.976;2023-09-08T08:40:19;3.40;;;3.00;;
76123;SDS011;65173;48.066;20.976;2023-09-08T08:43:22;3.35;;;3.10;;
76123;SDS011;65173;48.066;20.976;2023-09-08T08:46:25;4.97;;;3.15;;
76123;SDS011;65173;48.066;20.976;2023-09-08T08:49:30;3.63;;;3.42;;
76123;SDS011;65173;48.066;20.976;2023-09-08T08:52:33;4.93;;;3.38;;
76123;SDS011;65173;48.066;20.976;2023-09-08T08:55:36;4.03;;;3.65;;
76123;SDS011;65173;48.066;20.976;2023-09-08T08:58:39;4.03;;;3.00;;
76123;SDS011;65173;48.066;20.976;2023-09-08T09:01:42;3.20;;;2.90;;
76123;SDS011;65173;48.066;20.976;2023-09-08T09:04:45;8.68;;;3.70;;
76123;SDS011;65173;48.066;20.976;2023-09-08T09:12:28;4.20;;;3.13;;
76123;SDS011;65173;48.066;20.976;2023-09-08T09:15:31;3.90;;;3.50;;
76123;SDS011;65173;48.066;20.976;2023-09-08T09:21:59;3.60;;;3.30;;
76123;SDS011;65173;48.066;20.976;2023-09-08T09:25:02;3.10;;;2.80;;
76123;SDS011;65173;48.066;20.976;2023-09-08T09:28:07;3.15;;;2.85;;
76123;SDS011;65173;48.066;20.976;2023-09-08T09:31:10;4.45;;;3.42;;
76123;SDS011;65173;48.066;20.976;2023-09-08T09:34:13;3.53;;;3.20;;
76123;SDS011;65173;48.066;20.976;2023-09-08T09:37:16;5.55;;;4.03;;
76123;SDS011;65173;48.066;20.976;2023-09-08T09:40:18;3.92;;;3.30;;
76123;SDS011;65173;48.066;20.976;2023-09-08T09:43:21;5.90;;;3.73;;
76123;SDS011;65173;48.066;20.976;2023-09-08T09:46:27;10.02;;;3.97;;
76123;SDS011;65173;48.066;20.976;2023-09-08T09:49:30;3.90;;;3.38;;
76123;SDS011;65173;48.066;20.976;2023-09-08T09:52:34;6.82;;;3.40;;
76123;SDS011;65173;48.066;20.976;2023-09-08T09:55:42;3.60;;;3.17;;
76123;SDS011;65173;48.066;20.976;2023-09-08T09:58:46;4.55;;;2.75;;
76123;SDS011;65173;48.066;20.976;2023-09-08T10:01:50;4.60;;;3.88;;
76123;SDS011;65173;48.066;20.976;2023-09-08T10:04:54;4.63;;;3.20;;
76123;SDS011;65173;48.066;20.976;2023-09-08T10:07:56;3.35;;;3.05;;
76123;SDS011;65173;48.066;20.976;2023-09-08T10:11:00;4.13;;;3.80;;
76123;SDS011;65173;48.066;20.976;2023-09-08T10:14:07;5.47;;;3.20;;
76123;SDS011;65173;48.066;20.976;2023-09-08T10:17:15;5.57;;;4.13;;
76123;SDS011;65173;48.066;20.976;2023-09-08T10:20:24;4.40;;;4.00;;
76123;SDS011;65173;48.066;20.976;2023-09-08T10:23:31;3.97;;;3.60;;
76123;SDS011;65173;48.066;20.976;2023-09-08T10:26:35;3.67;;;3.25;;
76123;SDS011;65173;48.066;20.976;2023-09-08T10:29:40;4.03;;;3.53;;
76123;SDS011;65173;48.066;20.976;2023-09-08T10:32:42;3.58;;;3.28;;
76123;SDS011;65173;48.066;20.976;2023-09-08T10:35:45;3.53;;;3.23;;
76123;SDS011;65173;48.066;20.976;2023-09-08T10:38:48;3.88;;;3.58;;
76123;SDS011;65173;48.066;20.976;2023-09-08T10:42:19;3.55;;;3.25;;
76123;SDS011;65173;48.066;20.976;2023-09-08T10:45:19;4.40;;;3.30;;
76123;SDS011;65173;48.066;20.976;2023-09-08T10:48:22;4.18;;;3.35;;
76123;SDS011;65173;48.066;20.976;2023-09-08T10:51:25;5.30;;;3.65;;
76123;SDS011;65173;48.066;20.976;2023-09-08T10:58:04;4.55;;;2.80;;
76123;SDS011;65173;48.066;20.976;2023-09-08T11:01:08;3.38;;;2.97;;
76123;SDS011;65173;48.066;20.976;2023-09-08T11:04:17;3.63;;;3.17;;
76123;SDS011;65173;48.066;20.976;2023-09-08T11:07:21;3.47;;;3.17;;
76123;SDS011;65173;48.066;20.976;2023-09-08T11:10:24;4.40;;;4.00;;
76123;SDS011;65173;48.066;20.976;2023-09-08T11:13:26;3.40;;;3.10;;
76123;SDS011;65173;48.066;20.976;2023-09-08T11:16:30;3.43;;;3.13;;
76123;SDS011;65173;48.066;20.976;2023-09-08T11:19:48;4.10;;;3.53;;
76123;SDS011;65173;48.066;20.976;2023-09-08T11:22:51;4.18;;;2.95;;
76123;SDS011;65173;48.066;20.976;2023-09-08T11:25:54;3.80;;;3.45;;
76123;SDS011;65173;48.066;20.976;2023-09-08T11:28:57;3.75;;;3.45;;
76123;SDS011;65173;48.066;20.976;2023-09-08T11:31:59;3.75;;;3.45;;
76123;SDS011;65173;48.066;20.976;2023-09-08T11:35:04;3.20;;;2.90;;
76123;SDS011;65173;48.066;20.976;2023-09-08T11:38:11;3.30;;;3.00;;
76123;SDS011;65173;48.066;20.976;2023-09-08T11:41:13;7.53;;;3.40;;
76123;SDS011;65173;48.066;20.976;2023-09-08T11:44:17;3.60;;;3.08;;
76123;SDS011;65173;48.066;20.976;2023-09-08T11:47:20;3.20;;;2.90;;
76123;SDS011;65173;48.066;20.976;2023-09-08T11:50:23;4.22;;;3.42;;
76123;SDS011;65173;48.066;20.976;2023-09-08T11:53:26;3.47;;;3.20;;
76123;SDS011;65173;48.066;20.976;2023-09-08T11:56:29;3.53;;;3.22;;
76123;SDS011;65173;48.066;20.976;2023-09-08T11:59:33;3.38;;;2.85;;
76123;SDS011;65173;48.066;20.976;2023-09-08T12:02:36;4.68;;;3.42;;
76123;SDS011;65173;48.066;20.976;2023-09-08T12:05:40;3.10;;;2.78;;
76123;SDS011;65173;48.066;20.976;2023-09-08T12:08:45;3.13;;;2.93;;
76123;SDS011;65173;48.066;20.976;2023-09-08T12:11:48;3.13;;;2.92;;
76123;SDS011;65173;48.066;20.976;2023-09-08T12:14:51;3.63;;;3.15;;
76123;SDS011;65173;48.066;20.976;2023-09-08T12:17:53;3.80;;;3.50;;
76123;SDS011;65173;48.066;20.976;2023-09-08T12:21:05;3.75;;;3.40;;
76123;SDS011;65173;48.066;20.976;2023-09-08T12:24:08;3.15;;;2.95;;
76123;SDS011;65173;48.066;20.976;2023-09-08T12:27:15;3.63;;;3.33;;
76123;SDS011;65173;48.066;20.976;2023-09-08T12:30:22;5.18;;;3.72;;
76123;SDS011;65173;48.066;20.976;2023-09-08T12:33:31;3.55;;;2.85;;
76123;SDS011;65173;48.066;20.976;2023-09-08T12:36:34;3.40;;;3.10;;
76123;SDS011;65173;48.066;20.976;2023-09-08T12:39:38;3.10;;;2.80;;
76123;SDS011;65173;48.066;20.976;2023-09-08T12:42:41;4.45;;;3.30;;
76123;SDS011;65173;48.066;20.976;2023-09-08T12:45:54;3.22;;;2.78;;
76123;SDS011;65173;48.066;20.976;2023-09-08T12:48:58;3.80;;;3.33;;
76123;SDS011;65173;48.066;20.976;2023-09-08T12:52:01;4.10;;;2.80;;
76123;SDS011;65173;48.066;20.976;2023-09-08T12:55:03;4.10;;;3.45;;
76123;SDS011;65173;48.066;20.976;2023-09-08T12:58:06;6.80;;;3.28;;
76123;SDS011;65173;48.066;20.976;2023-09-08T13:01:08;3.50;;;3.30;;
76123;SDS011;65173;48.066;20.976;2023-09-08T13:04:11;3.20;;;3.00;;
76123;SDS011;65173;48.066;20.976;2023-09-08T13:07:14;3.70;;;3.40;;
76123;SDS011;65173;48.066;20.976;2023-09-08T13:10:17;3.17;;;2.57;;
76123;SDS011;65173;48.066;20.976;2023-09-08T13:13:20;2.90;;;2.60;;
76123;SDS011;65173;48.066;20.976;2023-09-08T13:16:22;3.85;;;2.90;;
76123;SDS011;65173;48.066;20.976;2023-09-08T13:19:25;2.73;;;2.53;;
76123;SDS011;65173;48.066;20.976;2023-09-08T13:22:27;3.47;;;2.95;;
76123;SDS011;65173;48.066;20.976;2023-09-08T13:25:30;2.83;;;2.40;;
76123;SDS011;65173;48.066;20.976;2023-09-08T13:28:32;2.90;;;2.70;;
76123;SDS011;65173;48.066;20.976;2023-09-08T13:31:35;2.97;;;2.30;;
76123;SDS011;65173;48.066;20.976;2023-09-08T13:34:38;4.43;;;3.28;;
76123;SDS011;65173;48.066;20.976;2023-09-08T13:37:40;3.22;;;2.22;;
76123;SDS011;65173;48.066;20.976;2023-09-08T13:40:44;2.90;;;2.60;;
76123;SDS011;65173;48.066;20.976;2023-09-08T13:43:47;4.13;;;2.78;;
76123;SDS011;65173;48.066;20.976;2023-09-08T13:46:50;3.28;;;2.72;;
76123;SDS011;65173;48.066;20.976;2023-09-08T13:49:53;2.80;;;2.50;;
76123;SDS011;65173;48.066;20.976;2023-09-08T13:52:59;3.67;;;3.38;;
76123;SDS011;65173;48.066;20.976;2023-09-08T13:56:01;4.57;;;3.30;;
76123;SDS011;65173;48.066;20.976;2023-09-08T13:59:10;4.05;;;2.40;;
76123;SDS011;65173;48.066;20.976;2023-09-08T14:02:14;4.60;;;2.90;;
76123;SDS011;65173;48.066;20.976;2023-09-08T14:05:37;3.90;;;3.35;;
76123;SDS011;65173;48.066;20.976;2023-09-08T14:08:46;3.88;;;2.80;;
76123;SDS011;65173;48.066;20.976;2023-09-08T14:11:51;2.93;;;2.67;;
76123;SDS011;65173;48.066;20.976;2023-09-08T14:14:57;2.97;;;2.40;;
76123;SDS011;65173;48.066;20.976;2023-09-08T14:17:59;3.22;;;2.92;;
76123;SDS011;65173;48.066;20.976;2023-09-08T14:21:02;3.07;;;2.77;;
76123;SDS011;65173;48.066;20.976;2023-09-08T14:24:06;4.15;;;2.95;;
76123;SDS011;65173;48.066;20.976;2023-09-08T14:27:08;3.80;;;2.80;;
76123;SDS011;65173;48.066;20.976;2023-09-08T14:30:11;3.15;;;2.85;;
76123;SDS011;65173;48.066;20.976;2023-09-08T14:33:13;5.20;;;3.33;;
76123;SDS011;65173;48.066;20.976;2023-09-08T14:36:16;3.17;;;2.85;;
76123;SDS011;65173;48.066;20.976;2023-09-08T14:39:20;3.53;;;2.88;;
76123;SDS011;65173;48.066;20.976;2023-09-08T14:42:23;2.73;;;2.37;;
76123;SDS011;65173;48.066;20.976;2023-09-08T14:45:25;3.17;;;2.42;;
76123;SDS011;65173;48.066;20.976;2023-09-08T14:48:29;3.95;;;2.88;;
76123;SDS011;65173;48.066;20.976;2023-09-08T14:51:32;3.83;;;2.60;;
76123;SDS011;65173;48.066;20.976;2023-09-08T14:54:34;3.33;;;3.13;;
76123;SDS011;65173;48.066;20.976;2023-09-08T14:57:37;3.40;;;3.10;;
76123;SDS011;65173;48.066;20.976;2023-09-08T15:00:40;3.38;;;2.95;;
76123;SDS011;65173;48.066;20.976;2023-09-08T15:03:42;3.10;;;2.25;;
76123;SDS011;65173;48.066;20.976;2023-09-08T15:06:45;4.70;;;3.17;;
76123;SDS011;65173;48.066;20.976;2023-09-08T15:09:48;5.60;;;2.83;;
76123;SDS011;65173;48.066;20.976;2023-09-08T15:12:51;3.40;;;2.90;;
76123;SDS011;65173;48.066;20.976;2023-09-08T15:15:53;3.67;;;3.17;;
76123;SDS011;65173;48.066;20.976;2023-09-08T15:18:56;3.25;;;2.78;;
76123;SDS011;65173;48.066;20.976;2023-09-08T15:21:59;3.00;;;2.70;;
76123;SDS011;65173;48.066;20.976;2023-09-08T15:25:01;3.38;;;2.70;;
76123;SDS011;65173;48.066;20.976;2023-09-08T15:28:04;3.95;;;2.70;;
76123;SDS011;65173;48.066;20.976;2023-09-08T15:31:06;2.95;;;2.65;;
76123;SDS011;65173;48.066;20.976;2023-09-08T15:34:09;3.83;;;2.35;;
76123;SDS011;65173;48.066;20.976;2023-09-08T15:37:13;5.13;;;3.10;;
76123;SDS011;65173;48.066;20.976;2023-09-08T15:40:16;3.33;;;2.65;;
76123;SDS011;65173;48.066;20.976;2023-09-08T15:43:18;4.20;;;2.90;;
76123;SDS011;65173;48.066;20.976;2023-09-08T15:46:21;3.30;;;2.90;;
76123;SDS011;65173;48.066;20.976;2023-09-08T15:49:24;3.90;;;2.97;;
76123;SDS011;65173;48.066;20.976;2023-09-08T15:52:26;3.20;;;2.73;;
76123;SDS011;65173;48.066;20.976;2023-09-08T15:55:29;3.55;;;2.80;;
76123;SDS011;65173;48.066;20.976;2023-09-08T15:58:31;4.25;;;2.83;;
76123;SDS011;65173;48.066;20.976;2023-09-08T16:01:34;3.30;;;2.85;;
76123;SDS011;65173;48.066;20.976;2023-09-08T16:04:36;3.40;;;3.10;;
76123;SDS011;65173;48.066;20.976;2023-09-08T16:07:39;4.40;;;2.65;;
76123;SDS011;65173;48.066;20.976;2023-09-08T16:10:43;4.75;;;2.67;;
76123;SDS011;65173;48.066;20.976;2023-09-08T16:13:47;5.57;;;3.13;;
76123;SDS011;65173;48.066;20.976;2023-09-08T16:16:50;4.07;;;2.80;;
76123;SDS011;65173;48.066;20.976;2023-09-08T16:19:53;3.95;;;2.42;;
76123;SDS011;65173;48.066;20.976;2023-09-08T16:22:57;4.07;;;2.90;;
76123;SDS011;65173;48.066;20.976;2023-09-08T16:26:00;6.07;;;3.10;;
76123;SDS011;65173;48.066;20.976;2023-09-08T16:29:03;3.92;;;3.10;;
76123;SDS011;65173;48.066;20.976;2023-09-08T16:32:05;4.85;;;3.08;;
76123;SDS011;65173;48.066;20.976;2023-09-08T16:35:08;7.13;;;3.13;;
76123;SDS011;65173;48.066;20.976;2023-09-08T16:38:11;4.55;;;3.28;;
76123;SDS011;65173;48.066;20.976;2023-09-08T16:41:14;3.85;;;3.10;;
76123;SDS011;65173;48.066;20.976;2023-09-08T16:44:17;4.00;;;2.80;;
76123;SDS011;65173;48.066;20.976;2023-09-08T16:47:19;4.53;;;3.42;;
76123;SDS011;65173;48.066;20.976;2023-09-08T16:50:22;7.13;;;4.25;;
76123;SDS011;65173;48.066;20.976;2023-09-08T16:53:25;9.57;;;4.07;;
76123;SDS011;65173;48.066;20.976;2023-09-08T16:56:27;5.57;;;4.03;;
76123;SDS011;65173;48.066;20.976;2023-09-08T16:59:30;8.40;;;4.25;;
76123;SDS011;65173;48.066;20.976;2023-09-08T17:02:33;8.02;;;3.60;;
76123;SDS011;65173;48.066;20.976;2023-09-08T17:05:36;5.75;;;4.07;;
76123;SDS011;65173;48.066;20.976;2023-09-08T17:08:41;5.90;;;4.00;;
76123;SDS011;65173;48.066;20.976;2023-09-08T17:11:43;6.22;;;4.22;;
76123;SDS011;65173;48.066;20.976;2023-09-08T17:14:46;7.70;;;4.23;;
76123;SDS011;65173;48.066;20.976;2023-09-08T17:17:48;10.45;;;4.93;;
76123;SDS011;65173;48.066;20.976;2023-09-08T17:20:51;19.23;;;9.43;;
76123;SDS011;65173;48.066;20.976;2023-09-08T17:23:54;17.23;;;9.27;;
76123;SDS011;65173;48.066;20.976;2023-09-08T17:26:56;13.02;;;7.13;;
76123;SDS011;65173;48.066;20.976;2023-09-08T17:29:59;7.93;;;5.10;;
76123;SDS011;65173;48.066;20.976;2023-09-08T17:33:03;8.68;;;4.80;;
76123;SDS011;65173;48.066;20.976;2023-09-08T17:36:05;8.88;;;4.88;;
76123;SDS011;65173;48.066;20.976;2023-09-08T17:39:08;8.73;;;5.88;;
76123;SDS011;65173;48.066;20.976;2023-09-08T17:42:10;8.48;;;5.20;;
76123;SDS011;65173;48.066;20.976;2023-09-08T17:45:13;17.03;;;4.93;;
76123;SDS011;65173;48.066;20.976;2023-09-08T17:48:15;8.30;;;4.35;;
76123;SDS011;65173;48.066;20.976;2023-09-08T17:51:18;13.73;;;4.18;;
76123;SDS011;65173;48.066;20.976;2023-09-08T17:54:21;9.63;;;5.97;;
76123;SDS011;65173;48.066;20.976;2023-09-08T17:57:23;11.32;;;4.80;;
76123;SDS011;65173;48.066;20.976;2023-09-08T18:00:26;10.63;;;4.70;;
76123;SDS011;65173;48.066;20.976;2023-09-08T18:03:28;9.55;;;4.80;;
76123;SDS011;65173;48.066;20.976;2023-09-08T18:06:31;5.68;;;4.65;;
76123;SDS011;65173;48.066;20.976;2023-09-08T18:09:33;7.72;;;4.18;;
76123;SDS011;65173;48.066;20.976;2023-09-08T18:12:37;8.15;;;4.38;;
76123;SDS011;65173;48.066;20.976;2023-09-08T18:15:40;5.97;;;3.97;;
76123;SDS011;65173;48.066;20.976;2023-09-08T18:18:43;8.10;;;3.95;;
76123;SDS011;65173;48.066;20.976;2023-09-08T18:21:47;12.90;;;3.70;;